createdAt,value
2023-01-21T00:01:08.851Z,8.40
2023-01-21T00:03:36.040Z,9.10
2023-01-21T00:06:04.071Z,8.50
2023-01-21T00:08:31.081Z,9.33
2023-01-21T00:11:04.274Z,9.30
2023-01-21T00:13:31.313Z,9.57
2023-01-21T00:15:58.967Z,9.13
2023-01-21T00:18:28.747Z,9.07
2023-01-21T00:21:00.225Z,9.73
2023-01-21T00:23:27.495Z,9.53
2023-01-21T00:25:59.359Z,8.57
2023-01-21T00:28:29.523Z,8.43
2023-01-21T00:31:00.781Z,8.37
2023-01-21T00:33:32.077Z,9.10
2023-01-21T00:36:07.321Z,7.93
2023-01-21T00:38:35.462Z,8.80
2023-01-21T00:41:05.476Z,8.93
2023-01-21T00:43:32.786Z,7.37
2023-01-21T00:45:59.992Z,7.03
2023-01-21T00:48:28.655Z,7.77
2023-01-21T00:50:59.169Z,8.67
2023-01-21T00:53:27.445Z,8.50
2023-01-21T00:56:00.362Z,7.67
2023-01-21T00:58:29.174Z,8.63
2023-01-21T01:01:06.732Z,8.23
2023-01-21T01:03:36.987Z,8.23
2023-01-21T01:06:07.134Z,9.00
2023-01-21T01:08:34.376Z,8.20
2023-01-21T01:11:01.877Z,6.23
2023-01-21T01:13:29.262Z,7.33
2023-01-21T01:16:00.583Z,6.97
2023-01-21T01:18:31.673Z,7.30
2023-01-21T01:20:58.893Z,6.03
2023-01-21T01:23:27.874Z,6.90
2023-01-21T01:26:04.846Z,5.90
2023-01-21T01:28:33.382Z,5.53
2023-01-21T01:31:02.316Z,5.00
2023-01-21T01:33:29.647Z,5.27
2023-01-21T01:36:02.124Z,5.67
2023-01-21T01:38:33.219Z,6.23
2023-01-21T01:41:03.809Z,7.07
2023-01-21T01:43:53.154Z,6.43
2023-01-21T01:46:21.512Z,7.30
2023-01-21T01:49:20.577Z,7.10
2023-01-21T01:52:01.427Z,4.83
2023-01-21T01:54:36.846Z,5.33
2023-01-21T01:57:07.120Z,5.20
2023-01-21T01:59:35.070Z,4.13
2023-01-21T02:02:07.957Z,4.13
2023-01-21T02:04:53.293Z,5.30
2023-01-21T02:07:23.074Z,4.80
2023-01-21T02:09:52.870Z,4.70
2023-01-21T02:12:22.078Z,4.70
2023-01-21T02:14:53.522Z,6.10
2023-01-21T02:17:38.895Z,5.90
2023-01-21T02:20:24.998Z,5.00
2023-01-21T02:23:06.192Z,5.63
2023-01-21T02:26:03.254Z,5.47
2023-01-21T02:28:51.582Z,4.70
2023-01-21T02:31:56.281Z,4.33
2023-01-21T02:34:33.353Z,4.80
2023-01-21T02:37:31.214Z,5.33
2023-01-21T02:40:21.671Z,4.83
2023-01-21T02:42:51.315Z,5.10
2023-01-21T02:45:33.653Z,5.07
2023-01-21T02:48:06.420Z,5.33
2023-01-21T02:50:45.572Z,4.57
2023-01-21T02:53:26.164Z,4.57
2023-01-21T02:55:54.293Z,4.67
2023-01-21T02:58:34.384Z,5.43
2023-01-21T03:01:26.740Z,5.80
2023-01-21T03:04:06.760Z,5.20
2023-01-21T03:06:50.266Z,5.57
2023-01-21T03:09:26.300Z,6.60
2023-01-21T03:12:38.125Z,6.20
2023-01-21T03:15:44.842Z,5.97
2023-01-21T03:18:36.417Z,6.23
2023-01-21T03:21:07.402Z,6.53
2023-01-21T03:23:41.473Z,7.27
2023-01-21T03:26:11.323Z,6.43
2023-01-21T03:28:44.816Z,6.50
2023-01-21T03:31:20.852Z,7.40
2023-01-21T03:33:52.290Z,7.67
2023-01-21T03:36:29.596Z,6.90
2023-01-21T03:39:08.609Z,7.37
2023-01-21T03:41:38.330Z,7.20
2023-01-21T03:44:05.731Z,7.10
2023-01-21T03:46:41.951Z,7.40
2023-01-21T03:49:15.040Z,6.93
2023-01-21T03:51:55.611Z,6.13
2023-01-21T03:54:22.941Z,6.93
2023-01-21T03:56:50.045Z,6.93
2023-01-21T03:59:17.133Z,6.70
2023-01-21T04:01:44.239Z,6.20
2023-01-21T04:04:11.385Z,6.43
2023-01-21T04:06:38.628Z,7.47
2023-01-21T04:09:07.381Z,7.00
2023-01-21T04:11:34.749Z,7.10
2023-01-21T04:14:03.562Z,7.23
2023-01-21T04:16:31.304Z,7.80
2023-01-21T04:18:58.389Z,6.83
2023-01-21T04:21:25.671Z,6.97
2023-01-21T04:23:52.820Z,6.77
2023-01-21T04:26:19.954Z,7.07
2023-01-21T04:28:47.101Z,7.07
2023-01-21T04:31:14.257Z,7.83
2023-01-21T04:33:41.288Z,7.13
2023-01-21T04:36:08.767Z,7.33
2023-01-21T04:38:35.903Z,7.53
2023-01-21T04:41:02.948Z,8.67
2023-01-21T04:43:30.041Z,7.43
2023-01-21T04:45:57.073Z,8.30
2023-01-21T04:48:24.236Z,7.53
2023-01-21T04:50:51.393Z,7.77
2023-01-21T04:53:18.529Z,7.20
2023-01-21T04:55:45.480Z,7.83
2023-01-21T04:58:12.563Z,7.40
2023-01-21T05:00:39.855Z,6.87
2023-01-21T05:03:06.846Z,7.67
2023-01-21T05:05:33.889Z,6.67
2023-01-21T05:08:00.996Z,6.67
2023-01-21T05:10:28.448Z,7.67
2023-01-21T05:12:55.586Z,7.17
2023-01-21T05:15:23.465Z,6.80
2023-01-21T05:17:50.569Z,8.13
2023-01-21T05:20:18.091Z,7.43
2023-01-21T05:22:49.018Z,8.23
2023-01-21T05:25:16.724Z,7.93
2023-01-21T05:27:43.774Z,8.20
2023-01-21T05:30:11.235Z,8.63
2023-01-21T05:32:39.449Z,7.70
2023-01-21T05:35:06.955Z,7.23
2023-01-21T05:37:34.115Z,7.83
2023-01-21T05:40:01.229Z,8.77
2023-01-21T05:42:28.430Z,8.50
2023-01-21T05:44:55.590Z,8.90
2023-01-21T05:47:22.823Z,7.27
2023-01-21T05:49:50.412Z,8.23
2023-01-21T05:52:17.645Z,7.73
2023-01-21T05:55:00.634Z,7.40
2023-01-21T05:57:28.661Z,8.40
2023-01-21T05:59:55.769Z,8.37
2023-01-21T06:02:22.899Z,8.70
2023-01-21T06:04:50.414Z,8.10
2023-01-21T06:07:17.627Z,8.57
2023-01-21T06:09:44.672Z,8.63
2023-01-21T06:12:11.884Z,7.93
2023-01-21T06:14:39.371Z,8.07
2023-01-21T06:17:06.357Z,7.17
2023-01-21T06:19:33.501Z,7.90
2023-01-21T06:22:00.587Z,8.07
2023-01-21T06:24:27.617Z,7.23
2023-01-21T06:26:54.705Z,7.87
2023-01-21T06:29:21.803Z,7.63
2023-01-21T06:31:49.083Z,7.70
2023-01-21T06:34:16.709Z,8.00
2023-01-21T06:36:43.768Z,7.67
2023-01-21T06:39:11.221Z,8.13
2023-01-21T06:41:38.804Z,7.33
2023-01-21T06:44:06.470Z,7.27
2023-01-21T06:46:34.251Z,8.60
2023-01-21T06:49:01.595Z,7.20
2023-01-21T06:51:28.950Z,8.73
2023-01-21T06:53:56.174Z,7.33
2023-01-21T06:56:23.298Z,7.87
2023-01-21T06:58:50.504Z,8.73
2023-01-21T07:01:18.431Z,8.13
2023-01-21T07:03:49.782Z,9.67
2023-01-21T07:06:16.882Z,9.83
2023-01-21T07:08:44.443Z,9.53
2023-01-21T07:11:44.118Z,9.00
2023-01-21T07:14:11.198Z,9.67
2023-01-21T07:16:38.720Z,8.83
2023-01-21T07:19:05.995Z,8.87
2023-01-21T07:21:33.113Z,8.83
2023-01-21T07:24:03.361Z,8.87
2023-01-21T07:26:30.467Z,8.73
2023-01-21T07:28:57.661Z,8.13
2023-01-21T07:31:27.655Z,8.50
2023-01-21T07:33:57.814Z,8.87
2023-01-21T07:36:24.969Z,6.80
2023-01-21T07:38:52.029Z,8.60
2023-01-21T07:41:19.078Z,7.60
2023-01-21T07:43:49.811Z,7.60
2023-01-21T07:46:21.286Z,7.47
2023-01-21T07:48:51.138Z,6.90
2023-01-21T07:51:21.947Z,7.27
2023-01-21T07:53:49.154Z,6.37
2023-01-21T07:56:18.200Z,7.07
2023-01-21T07:58:47.238Z,5.33
2023-01-21T08:01:14.519Z,6.33
2023-01-21T08:03:42.029Z,6.73
2023-01-21T08:06:09.166Z,6.63
2023-01-21T08:08:36.479Z,6.20
2023-01-21T08:11:03.579Z,6.40
2023-01-21T08:13:30.864Z,6.43
2023-01-21T08:15:58.059Z,7.97
2023-01-21T08:18:25.290Z,5.73
2023-01-21T08:20:59.570Z,7.00
2023-01-21T08:23:27.473Z,5.90
2023-01-21T08:25:54.801Z,6.70
2023-01-21T08:28:22.959Z,7.03
2023-01-21T08:30:50.113Z,6.63
2023-01-21T08:33:17.248Z,6.70
2023-01-21T08:35:45.019Z,7.07
2023-01-21T08:38:15.576Z,6.40
2023-01-21T08:40:44.318Z,6.87
2023-01-21T08:43:12.547Z,6.13
2023-01-21T08:45:39.574Z,7.57
2023-01-21T08:48:07.718Z,5.53
2023-01-21T08:50:36.447Z,6.83
2023-01-21T08:53:03.505Z,7.17
2023-01-21T08:55:30.594Z,6.90
2023-01-21T08:57:58.701Z,7.03
2023-01-21T09:00:26.154Z,10.23
2023-01-21T09:02:53.721Z,8.93
2023-01-21T09:05:21.747Z,7.63
2023-01-21T09:07:49.301Z,8.03
2023-01-21T09:10:37.474Z,7.60
2023-01-21T09:13:09.281Z,8.07
2023-01-21T09:15:43.567Z,6.53
2023-01-21T09:18:10.883Z,7.53
2023-01-21T09:20:39.981Z,7.27
2023-01-21T09:23:26.973Z,7.33
2023-01-21T09:26:16.843Z,7.13
2023-01-21T09:28:46.455Z,7.00
2023-01-21T09:31:16.568Z,6.30
2023-01-21T09:33:46.175Z,7.07
2023-01-21T09:36:16.422Z,8.03
2023-01-21T09:38:44.923Z,6.53
2023-01-21T09:41:38.900Z,6.93
2023-01-21T09:44:23.791Z,6.30
2023-01-21T09:47:28.056Z,7.43
2023-01-21T09:49:59.816Z,6.43
2023-01-21T09:52:36.795Z,7.00
2023-01-21T09:55:05.814Z,5.83
2023-01-21T09:57:42.585Z,6.13
2023-01-21T10:00:30.041Z,6.60
2023-01-21T10:03:00.740Z,6.20
2023-01-21T10:05:51.227Z,6.10
2023-01-21T10:08:37.175Z,5.63
2023-01-21T10:11:30.543Z,5.20
2023-01-21T10:14:16.937Z,4.63
2023-01-21T10:17:06.405Z,5.73
2023-01-21T10:19:44.265Z,5.90
2023-01-21T10:22:28.876Z,6.10
2023-01-21T10:25:25.618Z,5.43
2023-01-21T10:27:54.109Z,4.60
2023-01-21T10:30:22.737Z,5.13
2023-01-21T10:32:56.417Z,5.27
2023-01-21T10:35:43.826Z,5.30
2023-01-21T10:38:27.828Z,5.20
2023-01-21T10:41:05.389Z,4.73
2023-01-21T10:43:46.204Z,5.70
2023-01-21T10:46:38.293Z,4.73
2023-01-21T10:49:39.208Z,5.80
2023-01-21T10:52:49.411Z,5.20
2023-01-21T10:55:30.428Z,5.23
2023-01-21T10:58:26.457Z,5.53
2023-01-21T11:00:55.382Z,5.50
2023-01-21T11:03:57.562Z,5.10
2023-01-21T11:06:26.285Z,6.90
2023-01-21T11:09:00.350Z,6.33
2023-01-21T11:11:33.335Z,6.17
2023-01-21T11:14:00.703Z,4.90
2023-01-21T11:16:45.861Z,5.93
2023-01-21T11:19:21.813Z,5.50
2023-01-21T11:22:01.476Z,5.80
2023-01-21T11:24:35.572Z,5.90
2023-01-21T11:27:03.109Z,6.50
2023-01-21T11:29:40.550Z,7.50
2023-01-21T11:32:20.772Z,5.57
2023-01-21T11:34:51.461Z,5.50
2023-01-21T11:37:25.980Z,5.63
2023-01-21T11:39:59.833Z,5.10
2023-01-21T11:42:27.477Z,4.73
2023-01-21T11:44:57.721Z,4.80
2023-01-21T11:47:48.916Z,5.37
2023-01-21T11:50:35.562Z,4.87
2023-01-21T11:53:09.626Z,5.17
2023-01-21T11:55:41.085Z,4.23
2023-01-21T11:58:18.499Z,5.83
2023-01-21T12:00:47.973Z,5.67
2023-01-21T12:03:18.228Z,5.97
2023-01-21T12:05:49.647Z,4.83
2023-01-21T12:08:29.324Z,4.73
2023-01-21T12:11:03.124Z,4.70
2023-01-21T12:14:08.859Z,5.30
2023-01-21T12:16:40.605Z,4.87
2023-01-21T12:19:33.787Z,5.03
2023-01-21T12:22:38.202Z,5.20
2023-01-21T12:25:39.475Z,5.30
2023-01-21T12:28:29.759Z,6.60
2023-01-21T12:31:43.014Z,4.60
2023-01-21T12:34:35.476Z,4.47
2023-01-21T12:37:12.863Z,4.77
2023-01-21T12:39:41.316Z,4.43
2023-01-21T12:42:21.861Z,9.10
2023-01-21T12:45:06.616Z,5.83
2023-01-21T12:47:43.806Z,5.23
2023-01-21T12:50:22.059Z,4.77
2023-01-21T12:53:04.230Z,5.67
2023-01-21T12:56:01.657Z,5.10
2023-01-21T12:58:37.929Z,6.07
2023-01-21T13:01:16.267Z,5.57
2023-01-21T13:03:58.526Z,5.20
2023-01-21T13:06:53.640Z,6.10
2023-01-21T13:09:39.883Z,5.67
2023-01-21T13:12:26.700Z,5.33
2023-01-21T13:15:22.817Z,5.33
2023-01-21T13:17:58.889Z,5.77
2023-01-21T13:20:27.971Z,5.70
2023-01-21T13:23:30.047Z,5.57
2023-01-21T13:26:42.749Z,5.40
2023-01-21T13:29:37.491Z,5.07
2023-01-21T13:32:23.645Z,5.63
2023-01-21T13:35:20.952Z,5.53
2023-01-21T13:38:05.851Z,5.23
2023-01-21T13:40:54.769Z,5.33
2023-01-21T13:43:45.442Z,4.87
2023-01-21T13:46:19.430Z,4.83
2023-01-21T13:49:13.051Z,5.07
2023-01-21T13:52:00.878Z,4.63
2023-01-21T13:54:47.110Z,6.07
2023-01-21T13:57:44.756Z,5.20
2023-01-21T14:00:20.253Z,6.70
2023-01-21T14:02:59.927Z,5.47
2023-01-21T14:05:35.887Z,5.30
2023-01-21T14:08:11.012Z,5.57
2023-01-21T14:11:04.630Z,5.13
2023-01-21T14:13:50.896Z,5.07
2023-01-21T14:16:26.598Z,5.13
2023-01-21T14:19:04.931Z,5.23
2023-01-21T14:21:33.896Z,3.93
2023-01-21T14:24:33.679Z,4.50
2023-01-21T14:27:15.243Z,3.73
2023-01-21T14:29:48.029Z,5.63
2023-01-21T14:32:24.636Z,4.37
2023-01-21T14:35:34.207Z,5.33
2023-01-21T14:38:25.995Z,4.60
2023-01-21T14:41:08.523Z,4.70
2023-01-21T14:43:38.176Z,4.40
2023-01-21T14:46:27.715Z,4.50
2023-01-21T14:49:08.808Z,6.20
2023-01-21T14:51:39.205Z,4.67
2023-01-21T14:54:25.304Z,4.67
2023-01-21T14:57:01.773Z,4.57
2023-01-21T14:59:54.626Z,5.30
2023-01-21T15:02:45.720Z,5.47
2023-01-21T15:05:29.606Z,5.10
2023-01-21T15:08:25.367Z,4.50
2023-01-21T15:11:23.557Z,4.53
2023-01-21T15:14:03.636Z,4.90
2023-01-21T15:16:37.046Z,5.40
2023-01-21T15:19:14.875Z,6.00
2023-01-21T15:21:44.586Z,5.00
2023-01-21T15:24:52.832Z,3.27
2023-01-21T15:27:25.902Z,6.13
2023-01-21T15:30:01.427Z,4.90
2023-01-21T15:32:44.956Z,5.70
2023-01-21T15:35:25.324Z,5.87
2023-01-21T15:38:00.502Z,4.77
2023-01-21T15:40:35.938Z,5.53
2023-01-21T15:43:29.903Z,4.40
2023-01-21T15:46:30.650Z,6.00
2023-01-21T15:49:05.615Z,5.93
2023-01-21T15:52:17.033Z,5.27
2023-01-21T15:55:09.625Z,5.90
2023-01-21T15:57:48.815Z,5.60
2023-01-21T16:00:16.000Z,5.50
2023-01-21T16:03:29.335Z,5.40
2023-01-21T16:06:38.399Z,5.27
2023-01-21T16:09:08.121Z,5.57
2023-01-21T16:12:05.580Z,6.23
2023-01-21T16:14:56.986Z,5.27
2023-01-21T16:17:46.511Z,5.17
2023-01-21T16:20:16.741Z,5.77
2023-01-21T16:22:47.912Z,6.73
2023-01-21T16:25:19.208Z,6.33
2023-01-21T16:27:53.034Z,6.17
2023-01-21T16:30:31.969Z,5.60
2023-01-21T16:33:10.109Z,5.90
2023-01-21T16:36:02.833Z,6.40
2023-01-21T16:38:32.548Z,6.63
2023-01-21T16:41:08.591Z,6.00
2023-01-21T16:43:54.021Z,6.33
2023-01-21T16:46:29.875Z,5.60
2023-01-21T16:48:58.341Z,5.77
2023-01-21T16:51:36.624Z,5.97
2023-01-21T16:54:32.986Z,5.93
2023-01-21T16:57:01.243Z,6.07
2023-01-21T16:59:30.232Z,5.80
2023-01-21T17:01:59.767Z,6.40
2023-01-21T17:04:28.870Z,6.33
2023-01-21T17:07:57.327Z,6.27
2023-01-21T17:11:23.775Z,5.63
2023-01-21T17:14:47.043Z,5.57
2023-01-21T17:17:24.759Z,6.30
2023-01-21T17:19:52.848Z,6.13
2023-01-21T17:22:45.485Z,7.13
2023-01-21T17:25:33.365Z,7.13
2023-01-21T17:28:55.298Z,6.80
2023-01-21T17:32:06.174Z,8.67
2023-01-21T17:35:07.175Z,6.87
2023-01-21T17:37:57.119Z,7.20
2023-01-21T17:40:29.967Z,7.57
2023-01-21T17:43:24.923Z,6.83
2023-01-21T17:46:25.179Z,6.37
2023-01-21T17:50:54.488Z,5.13
2023-01-21T17:53:09.642Z,4.83
2023-01-21T17:56:00.599Z,7.60
2023-01-21T17:59:46.826Z,5.43
2023-01-21T18:02:41.857Z,6.63
2023-01-21T18:05:09.479Z,6.23
2023-01-21T18:07:38.114Z,7.50
2023-01-21T18:10:33.705Z,8.10
2023-01-21T18:13:01.367Z,6.60
2023-01-21T18:15:28.592Z,5.70
2023-01-21T18:17:58.893Z,6.70
2023-01-21T18:20:28.763Z,5.93
2023-01-21T18:22:57.546Z,5.97
2023-01-21T18:25:27.256Z,6.77
2023-01-21T18:27:55.405Z,5.50
2023-01-21T18:30:31.029Z,5.30
2023-01-21T18:32:58.210Z,5.40
2023-01-21T18:35:30.492Z,5.83
2023-01-21T18:37:57.644Z,5.77
2023-01-21T18:40:25.200Z,6.53
2023-01-21T18:42:56.800Z,5.77
2023-01-21T18:45:27.261Z,6.77
2023-01-21T18:47:56.321Z,5.40
2023-01-21T18:50:26.192Z,5.93
2023-01-21T18:52:54.128Z,6.40
2023-01-21T18:55:22.863Z,6.43
2023-01-21T18:57:51.056Z,6.63
2023-01-21T19:00:24.483Z,5.73
2023-01-21T19:02:53.924Z,6.63
2023-01-21T19:05:34.379Z,7.13
2023-01-21T19:08:02.731Z,5.53
2023-01-21T19:10:32.542Z,6.73
2023-01-21T19:13:00.160Z,5.97
2023-01-21T19:15:29.102Z,6.70
2023-01-21T19:17:57.139Z,6.40
2023-01-21T19:20:27.628Z,5.73
2023-01-21T19:22:56.438Z,7.10
2023-01-21T19:25:26.511Z,7.47
2023-01-21T19:27:56.238Z,7.40
2023-01-21T19:30:29.525Z,10.60
2023-01-21T19:32:58.705Z,8.50
2023-01-21T19:35:35.308Z,7.20
2023-01-21T19:38:06.062Z,7.17
2023-01-21T19:40:33.234Z,7.03
2023-01-21T19:43:03.480Z,7.17
2023-01-21T19:45:30.958Z,7.43
2023-01-21T19:47:58.296Z,7.57
2023-01-21T19:50:27.737Z,7.43
2023-01-21T19:52:56.075Z,8.50
2023-01-21T19:55:25.184Z,6.60
2023-01-21T19:57:58.155Z,6.87
2023-01-21T20:00:31.533Z,6.30
2023-01-21T20:02:59.070Z,6.20
2023-01-21T20:05:29.120Z,5.67
2023-01-21T20:07:56.329Z,6.17
2023-01-21T20:10:26.870Z,5.13
2023-01-21T20:12:54.310Z,7.27
2023-01-21T20:15:24.045Z,5.57
2023-01-21T20:17:55.067Z,6.03
2023-01-21T20:20:27.086Z,7.07
2023-01-21T20:22:54.702Z,5.43
2023-01-21T20:25:24.525Z,5.43
2023-01-21T20:27:54.928Z,4.77
2023-01-21T20:30:25.555Z,5.90
2023-01-21T20:32:52.852Z,5.83
2023-01-21T20:35:21.968Z,5.20
2023-01-21T20:37:51.297Z,5.60
2023-01-21T20:40:30.176Z,5.07
2023-01-21T20:42:58.037Z,4.60
2023-01-21T20:45:35.613Z,5.83
2023-01-21T20:48:04.488Z,6.37
2023-01-21T20:50:35.468Z,5.10
2023-01-21T20:53:04.311Z,6.23
2023-01-21T20:55:31.977Z,6.37
2023-01-21T20:57:59.155Z,7.37
2023-01-21T21:00:32.462Z,6.00
2023-01-21T21:02:59.831Z,5.77
2023-01-21T21:05:28.395Z,6.17
2023-01-21T21:07:55.741Z,6.80
2023-01-21T21:10:31.497Z,5.60
2023-01-21T21:13:01.911Z,5.80
2023-01-21T21:15:32.632Z,4.60
2023-01-21T21:17:59.878Z,7.37
2023-01-21T21:20:30.088Z,5.80
2023-01-21T21:22:57.146Z,6.40
2023-01-21T21:25:27.625Z,5.40
2023-01-21T21:27:55.562Z,6.93
2023-01-21T21:30:28.418Z,4.60
2023-01-21T21:33:00.756Z,3.27
2023-01-21T21:35:31.913Z,6.33
2023-01-21T21:38:03.642Z,4.50
2023-01-21T21:40:30.930Z,5.70
2023-01-21T21:43:17.540Z,5.57
2023-01-21T21:46:03.156Z,4.93
2023-01-21T21:48:41.644Z,4.67
2023-01-21T21:51:14.035Z,4.87
2023-01-21T21:53:41.851Z,4.20
2023-01-21T21:56:18.428Z,4.20
2023-01-21T21:58:46.028Z,4.30
2023-01-21T22:01:34.949Z,4.17
2023-01-21T22:04:03.754Z,4.73
2023-01-21T22:06:31.378Z,4.60
2023-01-21T22:08:59.031Z,3.40
2023-01-21T22:11:27.787Z,4.77
2023-01-21T22:13:56.616Z,4.40
2023-01-21T22:16:28.900Z,3.60
2023-01-21T22:18:58.087Z,3.70
2023-01-21T22:21:32.128Z,3.63
2023-01-21T22:23:59.896Z,3.37
2023-01-21T22:26:28.188Z,3.17
2023-01-21T22:28:55.487Z,4.37
2023-01-21T22:31:24.893Z,3.40
2023-01-21T22:33:52.219Z,3.63
2023-01-21T22:36:22.145Z,3.63
2023-01-21T22:38:50.134Z,3.80
2023-01-21T22:41:20.583Z,4.63
2023-01-21T22:43:48.847Z,4.53
2023-01-21T22:46:19.222Z,3.60
2023-01-21T22:48:46.887Z,4.30
2023-01-21T22:51:16.099Z,3.47
2023-01-21T22:53:46.140Z,3.70
2023-01-21T22:56:15.029Z,3.33
2023-01-21T22:58:42.367Z,4.03
2023-01-21T23:01:22.196Z,3.70
2023-01-21T23:03:49.512Z,3.93
2023-01-21T23:06:18.455Z,4.90
2023-01-21T23:08:45.968Z,4.97
2023-01-21T23:11:14.973Z,4.50
2023-01-21T23:13:42.293Z,4.77
2023-01-21T23:16:12.212Z,4.50
2023-01-21T23:18:40.775Z,5.17
2023-01-21T23:21:10.136Z,5.03
2023-01-21T23:23:38.112Z,4.57
2023-01-21T23:26:06.842Z,4.20
2023-01-21T23:28:34.524Z,3.83
2023-01-21T23:31:14.407Z,4.80
2023-01-21T23:33:41.830Z,4.47
2023-01-21T23:36:13.758Z,5.03
2023-01-21T23:38:41.817Z,4.50
2023-01-21T23:41:10.931Z,4.40
2023-01-21T23:43:38.280Z,5.60
2023-01-21T23:46:10.878Z,5.23
2023-01-21T23:48:37.945Z,5.37
2023-01-21T23:51:07.343Z,5.00
2023-01-21T23:53:38.503Z,4.50
2023-01-21T23:56:15.241Z,4.33
2023-01-21T23:58:42.651Z,4.70
